Time;durP1;ratioP1;P1;durP2;ratioP2;P2;SDS_P1;SDS_P2;PMS_P1;PMS_P2;Temp;Humidity;BMP_temperature;BMP_pressure;BME280_temperature;BME280_humidity;BME280_pressure;Samples;Min_cycle;Max_cycle;Signal;HPM_P1;HPM_P2
2022/08/07 00:01:02;;;;;;;1.67;0.55;;;;;;;16.64;46.07;101209.03;4963185;28;20498;-74
2022/08/07 00:03:49;;;;;;;0.98;0.30;;;;;;;16.66;45.93;101203.59;4968609;28;20134;-74
2022/08/07 00:06:16;;;;;;;0.40;0.40;;;;;;;16.68;45.97;101210.56;4962743;28;20522;-74
2022/08/07 00:08:45;;;;;;;0.77;0.40;;;;;;;16.68;46.04;101205.22;4968616;28;20058;-73
2022/08/07 00:11:12;;;;;;;0.35;0.35;;;;;;;16.66;45.80;101199.09;4962349;28;20043;-73
2022/08/07 00:13:46;;;;;;;0.57;0.40;;;;;;;16.53;46.13;101173.97;4966781;28;20483;-74
2022/08/07 00:16:13;;;;;;;1.73;0.90;;;;;;;16.61;46.38;101184.22;4967727;28;20047;-74
2022/08/07 00:18:47;;;;;;;0.32;0.30;;;;;;;16.64;46.21;101194.78;4968578;28;20098;-73
2022/08/07 00:21:13;;;;;;;1.30;0.40;;;;;;;16.56;46.27;101183.63;4969881;28;20122;-74
2022/08/07 00:24:00;;;;;;;1.65;0.40;;;;;;;16.44;46.52;101169.19;4964127;28;20123;-73
2022/08/07 00:26:27;;;;;;;0.30;0.30;;;;;;;16.37;46.51;101157.97;4967250;28;20113;-74
2022/08/07 00:29:14;;;;;;;0.70;0.40;;;;;;;16.28;46.71;101145.19;4967003;28;20069;-74
2022/08/07 00:31:41;;;;;;;2.78;0.52;;;;;;;16.39;46.83;101165.91;4967533;28;20511;-74
2022/08/07 00:34:08;;;;;;;0.70;0.40;;;;;;;16.33;46.93;101148.44;4966475;28;20042;-74
2022/08/07 00:36:36;;;;;;;2.05;0.40;;;;;;;16.45;46.72;101174.44;4963887;28;20046;-74
2022/08/07 00:39:08;;;;;;;0.25;0.25;;;;;;;16.41;46.69;101178.25;4963419;28;20459;-74
2022/08/07 00:41:50;;;;;;;1.73;0.30;;;;;;;16.26;47.01;101160.44;4960371;28;20050;-74
2022/08/07 00:44:26;;;;;;;0.40;0.35;;;;;;;16.35;46.96;101173.28;4966421;28;20046;-76
2022/08/07 00:46:54;;;;;;;0.68;0.30;;;;;;;16.21;46.96;101170.56;4963002;28;20039;-74
2022/08/07 00:49:21;;;;;;;0.30;0.30;;;;;;;16.25;47.01;101173.88;4962126;28;20575;-75
2022/08/07 00:52:08;;;;;;;0.30;0.30;;;;;;;16.25;47.08;101171.22;4955252;28;20198;-73
2022/08/07 00:54:37;;;;;;;0.60;0.28;;;;;;;16.21;47.32;101167.88;4963663;28;20054;-74
2022/08/07 00:57:08;;;;;;;1.25;0.40;;;;;;;16.22;46.97;101180.25;4961411;28;20479;-75
2022/08/07 00:59:37;;;;;;;3.28;0.40;;;;;;;16.17;47.18;101171.66;4965377;28;20058;-75
2022/08/07 01:02:06;;;;;;;0.47;0.25;;;;;;;16.16;47.49;101175.28;4960028;28;20725;-74
2022/08/07 01:04:52;;;;;;;1.20;0.30;;;;;;;16.20;47.18;101166.16;4966585;28;20407;-74
2022/08/07 01:07:23;;;;;;;0.90;0.38;;;;;;;16.21;47.41;101173.22;4958922;28;20495;-74
2022/08/07 01:09:53;;;;;;;0.88;0.30;;;;;;;16.14;47.26;101158.47;4956466;28;20650;-74
2022/08/07 01:12:38;;;;;;;2.67;0.50;;;;;;;16.01;47.59;101144.97;4957803;28;20059;-74
2022/08/07 01:15:19;;;;;;;2.30;0.40;;;;;;;16.10;47.51;101172.97;4955855;28;20051;-74
2022/08/07 01:17:45;;;;;;;0.88;0.30;;;;;;;16.07;47.79;101165.13;4975455;28;20042;-73
2022/08/07 01:20:15;;;;;;;1.52;0.30;;;;;;;16.06;47.79;101166.06;4967530;28;20106;-76
2022/08/07 01:22:43;;;;;;;0.98;0.45;;;;;;;15.93;47.79;101141.00;4966793;28;20046;-74
2022/08/07 01:25:27;;;;;;;1.13;0.30;;;;;;;16.06;47.81;101169.59;4961815;28;20098;-74
2022/08/07 01:28:14;;;;;;;0.45;0.40;;;;;;;16.06;47.85;101158.91;4949035;28;20039;-74
2022/08/07 01:30:41;;;;;;;1.23;0.55;;;;;;;16.06;48.20;101161.59;4966129;28;20138;-75
2022/08/07 01:33:07;;;;;;;1.08;0.47;;;;;;;16.02;47.95;101157.38;4967713;28;20090;-75
2022/08/07 01:35:34;;;;;;;1.20;0.65;;;;;;;15.93;48.29;101138.34;4945908;28;20082;-74
2022/08/07 01:38:20;;;;;;;1.95;0.50;;;;;;;16.01;48.04;101154.81;4961971;28;20134;-75
2022/08/07 01:40:54;;;;;;;1.00;0.30;;;;;;;15.89;48.20;101139.47;4960063;28;20070;-75
2022/08/07 01:43:22;;;;;;;1.77;0.50;;;;;;;15.83;48.41;101153.19;4964658;28;20051;-75
2022/08/07 01:45:52;;;;;;;1.17;0.43;;;;;;;15.94;48.59;101174.78;4960088;28;20055;-75
2022/08/07 01:48:20;;;;;;;0.75;0.30;;;;;;;15.90;48.57;101158.06;4964595;28;20082;-75
2022/08/07 01:50:59;;;;;;;0.63;0.30;;;;;;;15.98;48.29;101161.19;4959575;28;20039;-75
2022/08/07 01:53:49;;;;;;;1.98;0.40;;;;;;;15.95;48.49;101164.00;4950924;28;20057;-73
2022/08/07 01:56:46;;;;;;;1.80;0.55;;;;;;;15.74;48.90;101136.72;4963000;28;20058;-75
2022/08/07 01:59:21;;;;;;;1.33;0.30;;;;;;;15.84;48.64;101163.78;4959836;28;20767;-75
2022/08/07 02:01:58;;;;;;;2.13;0.47;;;;;;;15.82;48.94;101162.13;4964795;28;20740;-75
2022/08/07 02:04:37;;;;;;;3.70;0.52;;;;;;;15.81;48.88;101168.41;4958227;28;20054;-75
2022/08/07 02:07:06;;;;;;;0.60;0.40;;;;;;;15.79;48.93;101158.69;4964189;28;20110;-74
2022/08/07 02:09:33;;;;;;;2.22;0.63;;;;;;;15.82;49.22;101162.13;4963918;28;20198;-74
2022/08/07 02:12:23;;;;;;;0.57;0.30;;;;;;;15.73;48.95;101147.50;4962013;28;20053;-74
2022/08/07 02:14:59;;;;;;;0.75;0.40;;;;;;;15.69;49.08;101157.50;4965363;28;20109;-75
2022/08/07 02:17:28;;;;;;;0.75;0.40;;;;;;;15.62;49.14;101148.09;4962254;28;20413;-73
2022/08/07 02:20:01;;;;;;;0.43;0.40;;;;;;;15.59;49.48;101152.72;4960068;28;20043;-75
2022/08/07 02:22:38;;;;;;;1.40;0.40;;;;;;;15.51;49.38;101149.59;4964974;28;20050;-74
2022/08/07 02:25:08;;;;;;;0.77;0.50;;;;;;;15.45;49.71;101153.47;4961254;28;20051;-75
2022/08/07 02:27:44;;;;;;;0.70;0.40;;;;;;;15.34;50.13;101147.88;4964424;28;20079;-74
2022/08/07 02:30:18;;;;;;;0.68;0.47;;;;;;;15.35;50.06;101161.13;4964305;28;20053;-75
2022/08/07 02:32:47;;;;;;;0.57;0.40;;;;;;;15.29;50.36;101157.91;4962587;28;20145;-74
2022/08/07 02:35:36;;;;;;;1.88;0.40;;;;;;;15.31;50.29;101156.91;4960967;28;20381;-75
2022/08/07 02:38:30;;;;;;;0.60;0.40;;;;;;;15.27;50.65;101158.00;4963550;28;20620;-75
2022/08/07 02:40:59;;;;;;;1.52;0.40;;;;;;;15.24;50.93;101160.00;4965105;28;20590;-76
2022/08/07 02:43:29;;;;;;;0.35;0.35;;;;;;;15.17;51.07;101150.59;4968734;28;20142;-74
2022/08/07 02:45:58;;;;;;;1.40;0.50;;;;;;;15.20;50.75;101156.63;4964117;28;20058;-74
2022/08/07 02:48:29;;;;;;;2.17;0.60;;;;;;;15.17;51.11;101150.59;4965277;28;20051;-73
2022/08/07 02:51:00;;;;;;;0.40;0.30;;;;;;;15.14;51.01;101154.28;4968493;28;20043;-75
2022/08/07 02:53:31;;;;;;;;;;;;;;;15.14;50.99;101148.94;4961277;28;20074;-74
2022/08/07 02:56:07;;;;;;;1.15;0.47;;;;;;;14.97;51.23;101120.50;4961713;28;19945;-74
2022/08/07 02:58:50;;;;;;;0.73;0.45;;;;;;;15.12;51.21;101136.63;4958393;28;20103;-74
2022/08/07 03:01:23;;;;;;;1.95;0.32;;;;;;;15.13;50.96;101143.69;4969932;28;20051;-75
2022/08/07 03:04:03;;;;;;;0.82;0.40;;;;;;;14.99;51.29;101125.75;4960282;28;20179;-74
2022/08/07 03:06:33;;;;;;;1.40;0.77;;;;;;;15.08;51.15;101141.28;4965544;28;20145;-73
2022/08/07 03:09:02;;;;;;;0.50;0.25;;;;;;;15.05;51.40;101139.63;4960798;28;20086;-74
2022/08/07 03:11:29;;;;;;;1.98;0.60;;;;;;;15.05;51.52;101136.97;4956401;28;20411;-75
2022/08/07 03:14:04;;;;;;;0.75;0.63;;;;;;;15.06;51.46;101136.03;4966730;28;20053;-74
2022/08/07 03:16:33;;;;;;;1.20;0.50;;;;;;;14.91;51.36;101114.66;4966720;28;20533;-74
2022/08/07 03:19:00;;;;;;;0.50;0.50;;;;;;;15.03;51.31;101128.19;4958392;28;20075;-75
2022/08/07 03:21:28;;;;;;;2.10;0.45;;;;;;;14.92;51.49;101130.56;4963565;28;20077;-73
2022/08/07 03:23:59;;;;;;;1.13;0.50;;;;;;;14.73;51.54;101103.16;4962669;28;20522;-74
2022/08/07 03:26:51;;;;;;;1.30;0.50;;;;;;;14.90;51.88;101115.59;4963636;28;20053;-73
2022/08/07 03:29:31;;;;;;;2.53;0.90;;;;;;;14.82;51.68;101099.13;4964812;28;20486;-73
2022/08/07 03:32:04;;;;;;;0.90;0.40;;;;;;;14.92;51.94;101125.25;4957027;28;20043;-74
2022/08/07 03:34:33;;;;;;;2.30;0.73;;;;;;;14.91;51.95;101125.31;4962250;28;20043;-75
2022/08/07 03:37:08;;;;;;;1.27;0.30;;;;;;;14.92;51.83;101122.56;4961721;28;20062;-75
2022/08/07 03:39:39;;;;;;;1.23;0.30;;;;;;;14.83;51.82;101117.72;4961652;28;20063;-74
2022/08/07 03:42:26;;;;;;;0.95;0.50;;;;;;;14.82;51.96;101123.13;4967704;28;20054;-74
2022/08/07 03:44:54;;;;;;;2.25;0.50;;;;;;;14.62;51.89;101100.22;4962344;28;20066;-73
2022/08/07 03:47:25;;;;;;;0.52;0.40;;;;;;;14.79;52.42;101124.16;4965426;28;20070;-75
2022/08/07 03:49:56;;;;;;;1.20;0.50;;;;;;;14.73;52.77;101121.81;4961381;28;20061;-74
2022/08/07 03:52:27;;;;;;;0.75;0.40;;;;;;;14.69;52.61;101117.59;4964539;28;20345;-73
2022/08/07 03:54:56;;;;;;;0.88;0.47;;;;;;;14.73;52.81;101128.00;4981169;28;20078;-74
2022/08/07 03:57:35;;;;;;;2.45;0.43;;;;;;;14.63;52.50;101104.59;4967318;28;20091;-74
2022/08/07 04:00:22;;;;;;;1.05;0.45;;;;;;;14.73;52.70;101130.69;4960821;28;20067;-73
2022/08/07 04:02:57;;;;;;;1.98;0.55;;;;;;;14.68;52.76;101126.53;4964441;28;20043;-74
2022/08/07 04:05:24;;;;;;;1.40;0.43;;;;;;;14.59;52.90;101124.34;4968384;28;20058;-74
2022/08/07 04:08:10;;;;;;;1.63;0.40;;;;;;;14.54;53.25;101126.38;4963725;28;20131;-74
2022/08/07 04:10:39;;;;;;;0.40;0.40;;;;;;;14.57;52.97;101129.75;4968094;28;20043;-74
2022/08/07 04:13:12;;;;;;;1.48;0.52;;;;;;;14.55;53.96;101131.63;4968773;28;20086;-75
2022/08/07 04:15:42;;;;;;;1.95;0.50;;;;;;;14.61;53.48;101135.78;4970293;28;20068;-74
2022/08/07 04:18:13;;;;;;;1.00;0.50;;;;;;;14.61;53.20;101125.13;4968690;28;20055;-74
2022/08/07 04:21:00;;;;;;;0.95;0.50;;;;;;;14.66;52.79;101133.72;4962874;28;20453;-75
2022/08/07 04:23:28;;;;;;;2.42;0.40;;;;;;;14.59;53.08;101133.22;4966036;28;20130;-74
2022/08/07 04:26:15;;;;;;;1.17;0.30;;;;;;;14.57;53.43;101134.22;4963872;28;20050;-74
2022/08/07 04:28:47;;;;;;;1.00;0.50;;;;;;;14.45;53.61;101119.72;4962475;28;20055;-74
2022/08/07 04:31:14;;;;;;;2.42;0.60;;;;;;;14.55;53.23;101142.28;4964125;28;20074;-75
2022/08/07 04:33:46;;;;;;;0.85;0.45;;;;;;;14.37;53.47;101120.06;4960969;28;20497;-73
2022/08/07 04:36:20;;;;;;;0.50;0.43;;;;;;;14.51;53.45;101146.03;4967320;28;20049;-75
2022/08/07 04:38:52;;;;;;;0.77;0.47;;;;;;;14.52;53.81;101149.56;4960617;28;20062;-74
2022/08/07 04:41:19;;;;;;;0.95;0.47;;;;;;;14.55;53.86;101147.63;4965805;28;20134;-73
2022/08/07 04:43:49;;;;;;;1.10;0.50;;;;;;;14.45;53.33;101124.19;4966102;28;20046;-74
2022/08/07 04:46:58;;;;;;;0.50;0.50;;;;;;;14.60;53.69;101152.72;4960097;28;20476;-73
2022/08/07 04:49:49;;;;;;;0.93;0.50;;;;;;;14.56;53.67;101148.50;4963564;28;20046;-73
2022/08/07 04:52:40;;;;;;;3.45;0.70;;;;;;;14.59;54.31;101157.19;4959660;28;20043;-74
2022/08/07 04:55:22;;;;;;;1.10;0.47;;;;;;;14.63;53.73;101155.25;4964626;28;20047;-73
2022/08/07 04:58:25;;;;;;;0.85;0.40;;;;;;;14.55;53.46;101136.09;4955425;28;20644;-74
2022/08/07 05:01:36;;;;;;;0.77;0.50;;;;;;;14.67;53.22;101159.44;4956671;28;20051;-73
2022/08/07 05:04:27;;;;;;;0.52;0.40;;;;;;;14.64;53.76;101156.94;4957131;28;20129;-74
2022/08/07 05:07:05;;;;;;;1.92;0.43;;;;;;;14.69;53.59;101158.44;4956181;28;20051;-74
2022/08/07 05:09:58;;;;;;;1.17;0.40;;;;;;;14.74;53.14;101161.72;4954944;28;20050;-73
2022/08/07 05:12:33;;;;;;;0.98;0.30;;;;;;;14.74;53.34;101163.53;4958424;28;20220;-73
2022/08/07 05:15:15;;;;;;;0.60;0.40;;;;;;;14.81;53.49;101178.25;4957300;28;20070;-73
2022/08/07 05:17:55;;;;;;;1.50;0.50;;;;;;;14.86;53.28;101162.03;4960172;28;20117;-76
2022/08/07 05:20:32;;;;;;;2.53;0.70;;;;;;;14.88;53.36;101163.66;4968712;28;20160;-75
2022/08/07 05:23:05;;;;;;;0.68;0.43;;;;;;;14.87;53.06;101158.41;4954499;28;20114;-77
2022/08/07 05:25:43;;;;;;;0.55;0.40;;;;;;;15.05;52.75;101168.13;4958152;28;20126;-73
2022/08/07 05:28:33;;;;;;;1.33;0.55;;;;;;;15.05;52.85;101168.13;4956663;28;20047;-73
2022/08/07 05:31:01;;;;;;;2.88;0.52;;;;;;;15.18;52.59;101179.84;4959545;28;20057;-73
2022/08/07 05:33:30;;;;;;;0.75;0.40;;;;;;;15.06;52.59;101164.50;4961989;28;20114;-73
2022/08/07 05:36:03;;;;;;;0.50;0.40;;;;;;;15.19;53.11;101178.03;4963968;28;20047;-74
2022/08/07 05:38:32;;;;;;;0.47;0.40;;;;;;;15.24;52.68;101170.66;4962201;28;20054;-73
2022/08/07 05:41:18;;;;;;;1.40;0.57;;;;;;;15.38;52.14;101184.97;4967787;28;20051;-74
2022/08/07 05:43:51;;;;;;;0.70;0.40;;;;;;;15.48;51.95;101190.66;4960655;28;20058;-75
2022/08/07 05:46:39;;;;;;;2.10;0.63;;;;;;;15.52;51.99;101194.03;4958658;28;20467;-75
2022/08/07 05:49:08;;;;;;;;;;;;;;;15.54;52.41;101189.47;4963805;28;20055;-73
2022/08/07 05:51:40;;;;;;;0.70;0.40;;;;;;;15.65;51.57;101193.31;4961617;28;19965;-75
2022/08/07 05:54:08;;;;;;;8.02;0.60;;;;;;;15.65;51.40;101179.97;4967615;28;20054;-76
2022/08/07 05:56:56;;;;;;;1.05;0.40;;;;;;;15.75;51.30;101190.97;4962448;28;20051;-75
2022/08/07 05:59:25;;;;;;;0.55;0.50;;;;;;;15.82;51.46;101199.53;4962047;28;20050;-72
2022/08/07 06:01:56;;;;;;;1.10;0.40;;;;;;;15.87;51.36;101195.66;4960890;28;20558;-74
2022/08/07 06:04:26;;;;;;;0.65;0.50;;;;;;;15.72;51.35;101165.34;4970169;28;20101;-73
2022/08/07 06:06:58;;;;;;;0.90;0.50;;;;;;;16.03;50.64;101201.00;4962490;28;20039;-74
2022/08/07 06:09:31;;;;;;;1.90;0.50;;;;;;;16.06;50.58;101201.66;4968920;28;20050;-74
2022/08/07 06:12:17;;;;;;;0.82;0.40;;;;;;;16.15;51.11;101202.97;4964724;28;20054;-73
2022/08/07 06:14:47;;;;;;;0.40;0.40;;;;;;;16.25;49.74;101201.47;4975026;28;20457;-74
2022/08/07 06:17:18;;;;;;;1.95;0.47;;;;;;;16.32;50.00;101204.66;4960251;28;20190;-74
2022/08/07 06:19:48;;;;;;;0.45;0.38;;;;;;;16.51;49.51;101191.94;4955446;28;20087;-73
2022/08/07 06:22:30;;;;;;;4.22;0.50;;;;;;;16.77;49.42;101187.75;4962104;28;20054;-73
2022/08/07 06:25:05;;;;;;;1.17;0.45;;;;;;;17.06;48.38;101178.81;4963016;28;20059;-74
2022/08/07 06:27:35;;;;;;;1.13;0.50;;;;;;;17.48;47.30;101201.19;4965397;28;20047;-75
2022/08/07 06:30:22;;;;;;;0.63;0.30;;;;;;;17.86;47.10;101198.78;4967154;28;20058;-73
2022/08/07 06:33:04;;;;;;;2.17;0.50;;;;;;;18.20;45.09;101187.59;4974791;28;20050;-73
2022/08/07 06:35:41;;;;;;;2.85;0.57;;;;;;;18.67;44.38;101198.81;4962327;28;20054;-75
2022/08/07 06:38:27;;;;;;;1.98;0.50;;;;;;;19.13;43.82;101207.22;4967038;28;20125;-75
2022/08/07 06:40:59;;;;;;;0.77;0.40;;;;;;;19.49;43.47;101187.66;4964621;28;20061;-75
2022/08/07 06:43:31;;;;;;;0.75;0.60;;;;;;;19.77;42.52;101186.56;4962576;28;20046;-74
2022/08/07 06:46:04;;;;;;;1.13;0.43;;;;;;;20.11;41.67;101201.06;4962893;28;20055;-73
2022/08/07 06:48:38;;;;;;;1.08;0.40;;;;;;;20.25;41.05;101192.84;4964238;28;20052;-74
2022/08/07 06:51:16;;;;;;;0.90;0.35;;;;;;;20.52;40.41;101179.16;4958008;28;20099;-74
2022/08/07 06:54:02;;;;;;;0.80;0.40;;;;;;;20.70;40.75;101174.22;4959336;28;20043;-74
2022/08/07 06:56:49;;;;;;;1.65;0.30;;;;;;;20.72;40.02;101167.75;4964577;28;20101;-75
2022/08/07 06:59:20;;;;;;;0.88;0.47;;;;;;;20.90;38.60;101181.59;4968313;28;20062;-74
2022/08/07 07:02:14;;;;;;;0.63;0.40;;;;;;;21.03;39.90;101185.06;4961111;28;20126;-76
2022/08/07 07:05:02;;;;;;;0.77;0.38;;;;;;;21.38;38.42;101186.84;4945884;28;20046;-75
2022/08/07 07:07:29;;;;;;;0.60;0.40;;;;;;;21.53;38.34;101178.41;4959428;28;20067;-77
2022/08/07 07:10:25;;;;;;;1.20;0.30;;;;;;;21.58;38.32;101153.75;4962757;28;21143;-75
2022/08/07 07:12:58;;;;;;;0.70;0.30;;;;;;;21.77;36.96;101170.13;4945872;28;20520;-74
2022/08/07 07:15:32;;;;;;;1.25;0.40;;;;;;;22.03;37.06;101177.00;4965845;28;20039;-75
2022/08/07 07:18:12;;;;;;;1.38;0.40;;;;;;;22.10;36.60;101174.63;4962328;28;20063;-74
2022/08/07 07:20:55;;;;;;;2.38;0.38;;;;;;;22.11;37.58;101160.16;4966058;28;20141;-76
2022/08/07 07:23:23;;;;;;;2.10;0.60;;;;;;;22.45;37.23;101173.53;4965821;28;20481;-75
2022/08/07 07:26:14;;;;;;;0.60;0.40;;;;;;;22.88;35.68;101179.72;4961511;28;20445;-74
2022/08/07 07:29:09;;;;;;;0.73;0.30;;;;;;;22.82;34.37;101171.31;4966135;28;20050;-74
2022/08/07 07:31:57;;;;;;;0.40;0.30;;;;;;;22.47;35.34;101169.72;4960927;28;20194;-74
2022/08/07 07:34:28;;;;;;;1.02;0.30;;;;;;;22.54;36.12;101173.59;4961856;28;20117;-77
2022/08/07 07:37:00;;;;;;;1.05;0.35;;;;;;;22.78;34.88;101184.19;4961966;28;20054;-75
2022/08/07 07:39:51;;;;;;;0.85;0.30;;;;;;;22.73;34.96;101173.75;4967237;28;20049;-75
2022/08/07 07:42:25;;;;;;;3.33;0.43;;;;;;;22.92;34.98;101173.06;4972172;28;20450;-74
2022/08/07 07:45:04;;;;;;;1.63;0.25;;;;;;;22.77;34.53;101176.22;4966523;28;20126;-74
2022/08/07 07:47:35;;;;;;;1.08;0.30;;;;;;;22.52;35.12;101158.50;4965721;28;20071;-72
2022/08/07 07:50:21;;;;;;;0.30;0.30;;;;;;;22.57;35.45;101167.09;4957449;28;20824;-74
2022/08/07 07:53:06;;;;;;;2.75;0.57;;;;;;;22.45;36.13;101165.44;4964283;28;20047;-74
2022/08/07 07:55:57;;;;;;;0.50;0.40;;;;;;;22.64;37.44;101171.84;4967314;28;20141;-73
2022/08/07 07:58:33;;;;;;;1.27;0.25;;;;;;;23.06;35.73;101156.50;4960964;28;20097;-77
2022/08/07 08:01:08;;;;;;;1.38;0.40;;;;;;;23.23;34.53;101157.75;4958556;28;20051;-73
2022/08/07 08:03:57;;;;;;;0.50;0.43;;;;;;;23.24;34.50;101161.31;4960692;28;20051;-74
2022/08/07 08:06:39;;;;;;;2.95;0.45;;;;;;;23.33;34.37;101155.94;4962367;28;20053;-74
2022/08/07 08:09:20;;;;;;;1.40;0.35;;;;;;;23.84;34.19;101157.69;4962082;28;20078;-75
2022/08/07 08:11:50;;;;;;;1.85;0.30;;;;;;;23.87;33.31;101137.63;4964154;28;20051;-76
2022/08/07 08:14:33;;;;;;;0.80;0.40;;;;;;;24.03;33.95;101155.03;4971499;28;20073;-75
2022/08/07 08:17:03;;;;;;;1.08;0.30;;;;;;;24.24;32.58;101145.97;4961044;28;20050;-75
2022/08/07 08:19:53;;;;;;;2.30;0.40;;;;;;;24.35;32.79;101135.84;4961736;28;20063;-75
2022/08/07 08:28:25;;;;;;;0.90;0.40;;;;;;;24.67;32.75;101135.53;4966570;28;20096;-75
2022/08/07 08:31:08;;;;;;;1.67;0.38;;;;;;;24.62;32.94;101129.69;4964588;28;20049;-74
2022/08/07 08:33:44;;;;;;;1.00;0.32;;;;;;;24.64;33.13;101132.28;4965687;28;20134;-74
2022/08/07 08:36:18;;;;;;;3.00;0.40;;;;;;;24.73;33.72;101142.22;4963071;28;20471;-74
2022/08/07 08:38:58;;;;;;;2.17;0.52;;;;;;;24.62;33.09;101126.13;4964521;28;20055;-75
2022/08/07 08:41:40;;;;;;;1.05;0.60;;;;;;;24.31;33.93;101136.28;4957925;28;20058;-74
2022/08/07 08:44:45;;;;;;;2.08;0.30;;;;;;;24.16;33.31;101133.09;4962967;28;20050;-74
2022/08/07 08:47:23;;;;;;;1.38;0.47;;;;;;;24.02;33.22;101126.28;4960563;28;20108;-73
2022/08/07 08:50:02;;;;;;;0.95;0.40;;;;;;;24.16;34.15;101129.53;4964325;28;20066;-75
2022/08/07 08:52:38;;;;;;;0.75;0.40;;;;;;;24.35;32.19;101119.63;4959774;28;20430;-75
2022/08/07 08:55:31;;;;;;;1.52;0.40;;;;;;;24.56;32.84;101124.00;4949442;28;20058;-75
2022/08/07 08:58:29;;;;;;;1.70;0.30;;;;;;;24.86;32.10;101120.25;4961192;28;20061;-77
2022/08/07 09:01:09;;;;;;;0.47;0.40;;;;;;;24.87;31.80;101120.09;4958535;28;20054;-75
2022/08/07 09:04:24;;;;;;;1.02;0.50;;;;;;;25.00;32.12;101130.66;4959407;28;20047;-75
2022/08/07 09:07:07;;;;;;;1.27;0.70;;;;;;;25.17;31.67;101122.63;4887723;29;20071;-75
2022/08/07 09:10:04;;;;;;;1.83;0.50;;;;;;;25.52;31.38;101111.00;4961068;28;20043;-76
2022/08/07 09:12:45;;;;;;;0.82;0.57;;;;;;;25.76;30.96;101112.34;4972545;28;20109;-73
2022/08/07 09:15:43;;;;;;;4.53;0.70;;;;;;;25.59;31.66;101111.28;4972208;28;20051;-75
2022/08/07 09:18:53;;;;;;;3.50;1.48;;;;;;;25.39;31.70;101107.81;4975490;28;20046;-76
2022/08/07 09:21:29;;;;;;;1.73;1.02;;;;;;;25.17;32.01;101102.78;4964981;28;20188;-76
2022/08/07 09:24:46;;;;;;;17.48;10.55;;;;;;;24.72;32.71;101105.28;4955765;28;20043;-76
2022/08/07 09:27:36;;;;;;;2.67;0.50;;;;;;;24.46;33.68;101105.91;4960054;28;20495;-76
2022/08/07 09:30:26;;;;;;;0.82;0.57;;;;;;;24.03;34.22;101103.63;4968815;28;20128;-76
2022/08/07 09:33:20;;;;;;;0.50;0.45;;;;;;;23.64;35.17;101099.16;4958308;28;20078;-76
2022/08/07 09:36:33;;;;;;;2.45;1.17;;;;;;;23.60;35.81;101100.44;4963119;28;20058;-75
2022/08/07 09:39:17;;;;;;;0.95;0.68;;;;;;;23.50;35.99;101076.03;4961518;28;20071;-76
2022/08/07 09:42:39;;;;;;;0.82;0.57;;;;;;;23.59;35.45;101096.03;4962013;28;20043;-74
2022/08/07 09:45:13;;;;;;;1.17;0.55;;;;;;;23.65;35.92;101090.03;4961506;28;20547;-76
2022/08/07 09:48:41;;;;;;;0.65;0.50;;;;;;;23.79;36.19;101074.25;4956501;28;20526;-76
2022/08/07 09:52:14;;;;;;;1.27;0.80;;;;;;;23.90;35.95;101070.59;4962277;28;20051;-76
2022/08/07 09:55:09;;;;;;;0.88;0.50;;;;;;;23.89;35.55;101063.47;4959956;28;20059;-76
2022/08/07 09:58:40;;;;;;;0.80;0.60;;;;;;;23.96;35.55;101064.59;4965467;28;20043;-75
2022/08/07 10:01:45;;;;;;;0.95;0.55;;;;;;;24.12;35.33;101059.47;4974284;28;20049;-75
2022/08/07 10:04:49;;;;;;;2.60;0.60;;;;;;;24.18;35.06;101052.63;4963263;28;20062;-76
2022/08/07 10:07:47;;;;;;;2.22;0.70;;;;;;;24.27;34.40;101048.22;4963354;28;20475;-76
2022/08/07 10:10:36;;;;;;;0.70;0.50;;;;;;;24.36;34.04;101039.25;4965536;28;20055;-76
2022/08/07 10:13:48;;;;;;;0.60;0.50;;;;;;;24.22;34.43;100997.25;4944840;28;20050;-77
2022/08/07 10:16:59;;;;;;;1.92;0.63;;;;;;;24.59;34.28;101032.50;4961674;28;20406;-76
2022/08/07 10:19:44;;;;;;;0.85;0.65;;;;;;;24.72;33.06;101033.03;4947025;28;20484;-75
2022/08/07 10:22:51;;;;;;;1.27;0.63;;;;;;;24.66;33.72;101033.63;4967122;28;20445;-75
2022/08/07 10:25:29;;;;;;;1.90;0.45;;;;;;;24.62;33.36;101020.53;4927781;28;20109;-76
2022/08/07 10:28:29;;;;;;;1.80;0.70;;;;;;;24.19;33.61;101002.94;4965894;28;20043;-76
2022/08/07 10:31:20;;;;;;;1.20;0.50;;;;;;;24.23;34.05;101028.75;4964983;28;20054;-76
2022/08/07 10:34:22;;;;;;;1.40;0.52;;;;;;;24.18;34.33;101025.59;4960441;28;20117;-76
2022/08/07 10:37:18;;;;;;;0.55;0.40;;;;;;;24.31;34.01;100993.69;4963922;28;20043;-75
2022/08/07 10:40:01;;;;;;;0.95;0.60;;;;;;;24.44;34.11;100987.94;4962539;28;20059;-76
2022/08/07 10:42:45;;;;;;;1.48;0.73;;;;;;;24.65;32.99;101002.13;4961122;28;20597;-76
2022/08/07 10:45:36;;;;;;;1.23;0.60;;;;;;;24.53;34.29;101006.03;4960900;28;20047;-76
2022/08/07 10:48:47;;;;;;;0.40;0.40;;;;;;;24.36;33.87;101001.38;4963239;28;20042;-76
2022/08/07 10:51:21;;;;;;;0.70;0.40;;;;;;;24.32;33.32;100979.16;4962513;28;20046;-75
2022/08/07 10:54:31;;;;;;;1.90;0.45;;;;;;;24.74;33.06;101005.78;4958850;28;20106;-76
2022/08/07 10:57:31;;;;;;;2.20;0.60;;;;;;;25.06;31.12;100991.84;4964581;28;20488;-77
2022/08/07 11:00:10;;;;;;;0.60;0.50;;;;;;;25.26;30.83;100988.03;4963189;28;20062;-74
2022/08/07 11:03:19;;;;;;;1.88;0.50;;;;;;;25.50;31.09;100996.41;4963222;28;20055;-76
2022/08/07 11:05:46;;;;;;;;;;;;;;;25.48;29.40;100989.47;4967562;28;20446;-75
2022/08/07 11:08:35;;;;;;;1.20;0.40;;;;;;;25.43;29.91;100986.34;4963574;28;19926;-74
2022/08/07 11:11:09;;;;;;;1.00;0.57;;;;;;;25.44;29.42;100980.78;4968566;28;20046;-76
2022/08/07 11:13:56;;;;;;;1.63;0.40;;;;;;;25.53;29.77;100982.53;4946662;28;20062;-76
2022/08/07 11:16:55;;;;;;;0.52;0.40;;;;;;;25.49;30.03;100980.31;4962821;28;20069;-77
2022/08/07 11:19:38;;;;;;;0.80;0.43;;;;;;;25.56;29.09;100958.84;4963649;28;20058;-76
2022/08/07 11:22:16;;;;;;;1.02;0.52;;;;;;;25.76;30.26;100974.84;4962484;28;20142;-77
2022/08/07 11:25:15;;;;;;;3.03;0.40;;;;;;;25.87;28.68;100976.44;4963306;28;20191;-75
2022/08/07 11:27:47;;;;;;;0.88;0.30;;;;;;;25.94;28.65;100969.41;4963113;28;20569;-76
2022/08/07 11:30:50;;;;;;;2.28;0.70;;;;;;;26.00;28.12;100960.59;4963448;28;20122;-77
2022/08/07 11:33:42;;;;;;;0.65;0.30;;;;;;;26.10;28.12;100953.25;4947887;28;20050;-75
2022/08/07 11:36:55;;;;;;;1.42;0.60;;;;;;;26.25;28.20;100960.81;4961642;28;20059;-76
2022/08/07 11:39:41;;;;;;;1.50;0.40;;;;;;;26.34;27.97;100952.56;4957606;28;20134;-76
2022/08/07 11:42:58;;;;;;;0.60;0.40;;;;;;;26.30;28.74;100950.31;4959053;28;20055;-76
2022/08/07 11:45:39;;;;;;;2.05;0.43;;;;;;;26.39;28.46;100947.53;4949494;28;20046;-74
2022/08/07 11:48:42;;;;;;;0.88;0.40;;;;;;;26.37;28.14;100943.25;4958082;28;20050;-77
2022/08/07 11:52:02;;;;;;;1.92;0.50;;;;;;;26.33;27.20;100947.28;4964426;28;20078;-76
2022/08/07 11:55:24;;;;;;;0.52;0.30;;;;;;;26.20;27.74;100943.13;4960972;28;20138;-75
2022/08/07 11:58:48;;;;;;;1.13;0.57;;;;;;;25.90;27.73;100912.88;4960086;28;20692;-76
2022/08/07 12:01:55;;;;;;;1.90;0.40;;;;;;;26.01;27.72;100931.63;4961365;28;20046;-76
2022/08/07 12:04:54;;;;;;;1.25;0.40;;;;;;;25.99;27.62;100933.63;4920940;28;20040;-77
2022/08/07 12:07:33;;;;;;;2.13;0.43;;;;;;;25.90;28.30;100918.31;4962053;28;20495;-76
2022/08/07 12:10:14;;;;;;;1.55;0.50;;;;;;;26.00;27.76;100919.06;4959036;28;20039;-77
2022/08/07 12:12:55;;;;;;;0.75;0.40;;;;;;;26.12;27.52;100925.94;4966499;28;20054;-75
2022/08/07 12:15:29;;;;;;;1.33;0.60;;;;;;;26.29;28.15;100924.22;4970733;28;20046;-74
2022/08/07 12:18:44;;;;;;;0.75;0.40;;;;;;;26.47;27.63;100919.53;4959558;28;20073;-75
2022/08/07 12:21:36;;;;;;;0.77;0.40;;;;;;;26.51;27.75;100920.94;4968932;28;20039;-75
2022/08/07 12:28:33;;;;;;;2.03;0.40;;;;;;;26.39;26.89;100914.09;4901220;29;20898;-75
2022/08/07 12:31:07;;;;;;;1.35;0.50;;;;;;;26.35;28.19;100896.41;4894703;29;20048;-74
2022/08/07 12:33:36;;;;;;;0.65;0.40;;;;;;;26.52;27.36;100906.34;4954244;28;20086;-76
2022/08/07 12:36:25;;;;;;;2.35;0.50;;;;;;;26.47;27.61;100886.94;4978620;28;20049;-74
2022/08/07 12:39:01;;;;;;;1.23;0.30;;;;;;;26.65;26.97;100881.44;4966787;28;20051;-74
2022/08/07 12:41:51;;;;;;;1.17;0.68;;;;;;;26.70;27.22;100896.22;4965184;28;20109;-74
2022/08/07 12:44:20;;;;;;;0.60;0.35;;;;;;;26.70;26.49;100889.94;4964988;28;20105;-76